Date,TemperatureHighF,TemperatureAvgF,TemperatureLowF,DewpointHighF,DewpointAvgF,DewpointLowF,HumidityHigh,HumidityAvg,HumidityLow,PressureMaxIn,PressureMinIn,WindSpeedMaxMPH,WindSpeedAvgMPH,GustSpeedMaxMPH,PrecipitationSumIn
2014-1-1,21,15,13,16,12,8,93,83,63,29.14,28.92,20,5,21,0.00
2014-1-2,14,8,4,11,8,4,93,92,91,29.01,28.70,16,7,20,0.00
2014-1-3,7,2,-5,4,2,-6,92,87,67,29.09,28.75,12,4,14,0.00
2014-1-4,37,25,6,23,10,0,92,54,28,29.05,28.87,22,6,29,0.00
2014-1-5,40,34,30,33,25,18,95,70,50,29.01,28.32,8,2,11,0.16
2014-1-6,46,23,2,45,20,0,97,85,65,28.60,28.19,35,13,44,0.16
2014-1-7,7,2,-3,8,-3,-13,92,70,56,29.02,28.59,39,14,41,0.00
2014-1-8,18,14,5,16,12,4,93,85,71,29.25,29.02,19,6,22,0.00
2014-1-9,24,17,12,16,13,11,92,80,63,29.47,29.19,17,4,19,0.00
2014-1-10,40,32,21,40,30,16,96,93,80,29.20,28.81,10,2,10,0.05
2014-1-11,52,45,36,51,44,35,97,95,91,28.81,28.20,28,8,30,0.28
2014-1-12,36,34,31,35,32,29,95,91,85,28.84,28.39,22,8,26,0.00
2014-1-13,54,44,32,45,36,29,97,72,49,28.78,28.60,22,8,29,0.04
2014-1-14,46,37,27,45,36,26,97,94,83,28.70,28.58,14,4,20,0.03
2014-1-15,35,31,27,33,26,21,95,81,64,28.84,28.64,25,7,27,0.00
2014-1-16,34,28,24,26,22,16,94,77,51,28.83,28.68,15,3,16,0.00
2014-1-17,37,31,27,29,26,23,94,80,61,28.73,28.62,23,5,29,0.00
2014-1-18,31,21,18,29,19,14,94,89,80,28.74,28.65,24,9,29,0.00
2014-1-19,28,23,16,26,20,14,93,89,78,28.66,28.29,33,10,50,0.04
2014-1-20,30,20,9,29,18,8,94,87,66,28.84,28.36,18,5,24,0.00
2014-1-21,9,5,1,8,4,0,92,89,81,28.93,28.79,12,3,14,0.00
2014-1-22,13,3,-7,8,2,-6,92,86,68,28.89,28.78,8,2,9,0.00
2014-1-23,14,7,4,11,8,0,93,90,78,29.12,28.80,13,4,16,0.00
2014-1-24,18,10,0,11,4,0,91,74,50,29.11,28.48,31,10,35,0.00
2014-1-25,24,18,9,23,15,4,93,88,67,28.48,28.09,26,10,29,0.00
2014-1-26,28,12,2,24,8,-6,93,80,63,28.57,28.30,17,6,24,0.00
2014-1-27,30,15,3,26,9,-6,94,73,54,28.88,28.17,29,10,32,0.00
2014-1-28,6,3,-2,4,-1,-6,90,76,63,29.10,28.88,23,9,28,0.00
2014-1-29,15,7,0,11,4,-6,93,81,64,29.03,28.79,28,11,34,0.00
2014-1-30,34,21,9,18,7,4,78,54,29,29.10,28.69,21,7,27,0.00
2014-1-31,35,32,29,29,25,14,94,76,43,29.03,28.74,28,7,33,0.00
2014-2-1,40,32,24,39,31,23,96,93,79,29.05,28.74,18,3,20,0.43
2014-2-2,38,30,24,38,28,21,96,93,83,29.08,28.76,12,3,18,0.12
2014-2-3,26,20,11,23,17,8,93,84,65,29.18,29.06,8,1,9,0.01
2014-2-4,27,19,11,21,15,8,93,83,59,29.34,29.08,6,1,11,0.00
2014-2-5,23,20,13,21,19,11,93,93,87,29.10,28.63,16,5,23,0.00
2014-2-6,18,13,1,16,12,4,93,89,78,29.17,29.00,22,6,27,0.00
2014-2-7,16,10,8,11,7,4,93,81,70,29.09,28.99,31,10,32,0.00
2014-2-8,16,11,6,11,8,4,93,85,75,29.12,29.00,16,6,21,0.00
2014-2-9,20,14,5,18,13,8,93,92,87,29.00,28.79,12,3,13,0.00
2014-2-10,20,14,8,18,11,8,93,86,68,29.12,28.89,19,6,19,0.00
2014-2-11,15,12,6,14,8,4,93,84,68,29.29,29.10,14,4,16,0.00
2014-2-12,24,9,-10,11,4,-6,92,72,47,29.29,28.95,7,2,9,0.07
2014-2-13,26,18,6,24,14,0,93,79,57,28.98,28.42,11,3,12,0.00
2014-2-14,29,25,22,26,23,21,94,90,74,28.61,28.31,17,5,22,0.00
2014-2-15,26,23,15,24,21,14,94,90,76,28.84,28.61,14,5,16,0.01
2014-2-16,18,13,9,16,12,8,93,91,81,29.09,28.80,11,4,12,0.00
2014-2-17,28,12,-5,18,7,-6,92,71,45,29.32,28.72,16,4,21,0.03
2014-2-18,30,26,22,29,23,16,94,86,60,28.89,28.62,26,9,30,0.00
2014-2-19,48,38,24,35,29,21,95,74,48,28.95,28.56,22,6,26,0.06
2014-2-20,40,35,31,35,32,29,95,89,65,29.06,28.65,16,5,18,0.58
2014-2-21,49,38,35,48,34,23,97,84,58,28.67,28.45,31,10,38,0.39
2014-2-22,41,37,34,32,24,18,92,58,46,28.86,28.66,34,14,39,0.08
2014-2-23,37,32,25,29,23,16,91,70,44,28.92,28.80,22,8,27,0.00
2014-2-24,25,20,17,21,15,11,93,80,61,28.93,28.78,24,8,30,0.00
2014-2-25,20,17,14,18,14,8,93,83,63,28.92,28.69,17,7,20,0.00
2014-2-26,19,10,8,18,4,-6,93,72,49,28.83,28.50,22,8,26,0.00
2014-2-27,17,10,6,14,6,-6,93,76,56,28.91,28.33,31,9,35,0.00
2014-2-28,19,8,-1,4,-1,-6,91,64,35,29.24,28.91,15,4,16,0.00
2014-3-1,38,23,9,26,13,0,94,66,38,29.04,28.93,16,4,18,0.00
2014-3-2,17,13,7,16,9,0,93,83,61,29.10,28.98,14,4,16,0.00
2014-3-3,14,7,0,8,3,-6,92,77,61,29.24,29.01,13,4,16,0.00
2014-3-4,16,8,-2,11,4,-6,93,80,55,29.19,29.07,13,4,14,0.00
2014-3-5,26,16,7,18,12,4,93,84,55,29.39,29.08,11,2,14,0.01
2014-3-6,26,13,-2,14,7,0,92,72,42,29.49,29.07,11,3,17,0.00
2014-3-7,46,27,5,28,17,4,90,67,44,29.13,28.78,10,2,12,0.02
2014-3-8,37,32,23,33,28,18,95,84,66,28.95,28.78,11,4,14,0.00
2014-3-9,32,24,17,23,18,14,91,77,62,29.07,28.68,20,7,24,0.00
2014-3-10,45,39,32,39,33,23,89,79,65,28.74,28.49,24,8,31,0.00
2014-3-11,53,43,37,40,37,33,96,80,51,28.72,28.52,16,5,21,0.00
2014-3-12,40,25,12,39,24,11,96,93,82,28.66,28.30,21,7,36,0.02
2014-3-13,17,12,6,14,6,4,93,78,54,28.92,28.59,19,6,23,0.00
2014-3-14,55,39,14,43,26,11,94,61,38,28.89,28.57,34,9,41,0.20
2014-3-15,44,34,21,42,30,14,95,81,65,29.05,28.55,25,9,30,0.01
2014-3-16,21,16,10,18,9,4,93,69,53,29.27,29.05,15,4,17,0.00
2014-3-17,26,17,6,18,12,4,93,77,51,29.05,28.91,11,2,14,0.00
2014-3-18,43,30,17,31,21,11,80,67,49,29.11,28.91,11,3,12,0.00
2014-3-19,52,42,33,43,33,23,96,73,53,28.99,28.61,23,6,24,0.08
2014-3-20,44,35,32,43,32,26,96,90,74,28.86,28.60,26,10,29,0.05
2014-3-21,41,31,27,29,25,21,90,77,57,29.03,28.80,15,5,24,0.00
2014-3-22,49,35,30,40,30,24,96,81,54,29.00,28.50,30,8,33,0.07
2014-3-23,30,21,17,24,14,8,93,74,57,29.14,28.98,19,5,22,0.00
2014-3-24,24,19,17,21,14,11,93,76,58,29.17,28.95,19,5,19,0.00
2014-3-25,36,25,17,28,18,14,94,74,38,28.95,28.80,20,6,25,0.00
2014-3-26,23,19,15,18,12,8,92,71,52,29.13,28.88,18,6,24,0.00
2014-3-27,44,30,14,38,19,8,93,62,32,29.15,28.84,16,4,21,0.02
2014-3-28,55,45,38,50,40,33,96,83,63,29.15,28.70,26,8,32,0.06
2014-3-29,38,35,31,37,32,29,95,90,83,29.15,28.89,21,4,22,0.00
2014-3-30,47,36,29,33,30,28,95,80,52,29.01,28.86,17,5,21,0.35
2014-3-31,52,38,23,33,29,21,95,74,44,29.25,28.97,7,2,8,0.00
2014-4-1,58,45,35,42,33,28,84,63,45,29.11,28.82,19,6,22,0.00
2014-4-2,50,41,33,37,32,29,91,72,56,29.16,28.91,20,6,25,0.00
2014-4-3,42,34,24,33,28,23,94,79,64,29.22,28.97,11,3,16,0.00
2014-4-4,53,43,33,52,40,26,97,92,72,28.95,28.47,34,7,43,0.50
2014-4-5,41,36,31,38,30,26,95,79,62,29.07,28.59,36,11,39,0.01
2014-4-6,54,40,28,32,28,18,95,66,27,29.23,29.06,10,3,14,0.00
2014-4-7,54,43,36,42,34,26,96,73,43,29.07,28.46,17,4,22,0.70
2014-4-8,49,40,36,45,38,35,96,94,82,28.66,28.22,18,5,21,0.40
2014-4-9,50,41,33,37,32,21,95,74,36,28.98,28.66,16,4,20,0.00
2014-4-10,70,54,36,53,36,28,97,56,27,28.97,28.78,28,10,35,0.30
2014-4-11,60,52,44,50,39,26,97,68,29,29.14,28.87,11,3,13,0.04
2014-4-12,64,52,42,46,42,36,96,72,41,29.27,29.03,11,4,17,0.00
2014-4-13,76,62,45,57,50,36,94,68,47,29.07,28.86,21,6,25,0.09
2014-4-14,72,60,44,62,54,43,98,81,46,28.86,28.67,19,6,30,0.28
2014-4-15,44,33,24,44,29,14,96,87,58,29.05,28.54,20,7,27,0.32
2014-4-16,40,30,22,24,20,14,83,63,43,29.48,29.05,15,3,18,0.00
2014-4-17,60,43,28,35,27,21,75,53,31,29.53,29.37,14,5,17,0.00
2014-4-18,62,50,42,44,37,29,93,62,40,29.38,29.23,13,4,18,0.00
2014-4-19,52,43,33,40,33,26,95,71,40,29.47,29.24,13,4,15,0.00
2014-4-20,67,50,34,41,33,26,94,56,25,29.44,29.13,12,3,14,0.00
2014-4-21,73,60,42,42,38,35,81,46,26,29.14,28.80,15,5,17,0.00
2014-4-22,64,53,42,57,46,38,97,79,39,28.80,28.60,19,7,27,0.51
2014-4-23,47,40,35,40,34,21,96,79,45,29.00,28.67,19,6,24,0.24
2014-4-24,54,43,32,36,25,16,83,51,25,29.19,28.99,12,3,15,0.00
2014-4-25,56,47,40,43,32,24,96,58,33,29.00,28.63,17,4,25,0.24
2014-4-26,49,43,39,47,40,36,97,90,77,29.00,28.69,15,5,19,0.03
2014-4-27,55,45,38,40,35,31,92,70,40,29.21,28.99,12,3,13,0.00
2014-4-28,57,47,33,39,34,29,95,63,40,29.23,29.00,16,3,22,0.00
2014-4-29,56,50,45,49,44,39,97,80,64,29.09,28.90,24,8,31,0.78
2014-4-30,55,51,47,52,48,43,97,91,77,29.11,28.78,17,4,22,0.32
2014-5-1,57,53,48,53,46,38,97,79,51,28.84,28.75,23,8,27,0.04
2014-5-2,53,49,46,47,44,40,97,82,70,28.84,28.70,22,8,27,0.00
2014-5-3,58,51,47,51,46,43,97,85,58,28.83,28.67,25,7,26,0.07
2014-5-4,56,49,42,44,38,33,91,69,44,28.99,28.70,29,9,32,0.00
2014-5-5,59,49,38,41,37,32,96,66,40,29.13,28.97,11,3,15,0.00
2014-5-6,60,52,43,41,37,32,81,59,37,29.17,28.96,12,3,16,0.00
2014-5-7,61,52,43,43,36,31,74,55,40,29.30,29.13,13,4,16,0.00
2014-5-8,73,60,50,58,47,36,79,61,44,29.23,29.09,11,3,12,0.12
2014-5-9,82,68,53,63,58,45,98,73,37,29.12,28.88,26,5,33,0.22
2014-5-10,66,61,52,63,51,42,95,71,49,28.99,28.83,23,8,26,0.00
2014-5-11,73,60,46,45,40,31,92,53,23,29.23,28.97,14,4,16,0.00
2014-5-12,79,67,53,63,55,39,94,66,45,29.27,29.08,12,2,14,0.00
2014-5-13,86,70,59,69,64,57,99,83,50,29.22,29.09,16,3,26,0.19
2014-5-14,77,66,57,70,64,57,99,93,73,29.27,29.09,16,3,21,0.87
2014-5-15,79,68,53,66,61,52,99,81,50,29.10,28.97,22,6,29,0.07
2014-5-16,53,49,44,52,46,41,97,92,77,28.99,28.89,13,5,18,0.80
2014-5-17,56,47,40,47,41,37,97,79,57,29.19,28.94,14,3,14,0.00
2014-5-18,60,51,42,45,40,33,96,70,37,29.36,29.18,14,4,16,0.00
2014-5-19,67,56,45,50,45,40,87,67,41,29.34,29.21,15,5,16,0.00
2014-5-20,73,59,48,55,47,40,94,68,33,29.30,29.06,7,2,10,0.00
2014-5-21,72,63,56,63,58,51,98,83,67,29.06,28.90,7,2,9,0.00
2014-5-22,70,61,54,62,57,51,98,87,61,29.01,28.86,16,4,20,0.02
2014-5-23,59,54,50,55,52,48,97,93,83,29.11,28.96,13,5,18,0.00
2014-5-24,75,60,48,57,51,47,97,76,40,29.28,29.09,12,4,14,0.00
2014-5-25,76,64,52,53,48,42,97,62,32,29.31,29.14,14,5,19,0.00
2014-5-26,79,69,60,60,52,46,69,56,42,29.22,29.04,19,7,22,0.00
2014-5-27,79,70,64,67,61,54,98,73,59,29.07,28.94,21,5,22,0.05
2014-5-28,65,60,56,64,55,51,98,85,68,29.22,28.95,10,2,12,0.00
2014-5-29,66,58,51,59,54,50,97,88,75,29.27,29.15,6,1,9,0.00
2014-5-30,75,62,47,59,53,47,97,76,48,29.34,29.15,9,2,11,0.00
2014-5-31,74,62,47,56,46,36,97,61,29,29.47,29.23,10,1,14,0.00
2014-6-1,82,66,47,54,48,41,96,57,27,29.43,29.18,16,2,16,0.00
2014-6-2,82,74,64,69,63,53,82,69,59,29.25,29.07,18,6,22,0.00
2014-6-3,78,71,57,71,64,51,99,82,54,29.07,28.94,26,7,32,0.94
2014-6-4,71,62,52,57,53,45,97,76,42,29.06,28.84,14,4,17,0.00
2014-6-5,64,56,48,54,50,47,97,82,61,28.98,28.78,11,2,14,0.00
2014-6-6,75,62,49,55,50,44,97,69,36,29.15,28.97,12,3,16,0.00
2014-6-7,80,65,49,55,51,44,97,65,32,29.27,29.01,9,2,9,0.00
2014-6-8,80,65,55,65,56,50,98,78,42,29.10,28.95,8,2,9,0.56
2014-6-9,76,67,56,64,61,55,98,83,59,29.17,28.99,8,1,12,0.00
2014-6-10,77,68,58,66,62,54,98,83,63,29.17,29.01,8,1,11,0.00
2014-6-11,82,72,65,72,66,54,99,84,58,29.09,28.96,11,3,14,0.20
2014-6-12,80,71,67,73,67,64,99,90,68,29.01,28.91,16,4,19,0.88
2014-6-13,76,68,57,69,63,51,99,86,62,29.00,28.87,17,4,21,0.01
2014-6-14,66,58,52,56,51,47,97,80,60,29.22,29.00,17,4,17,0.00
2014-6-15,73,61,48,60,54,47,97,81,56,29.35,29.16,7,1,12,0.00
2014-6-16,82,69,53,71,62,52,98,81,62,29.24,29.11,15,3,20,0.00
2014-6-17,86,74,62,73,68,62,99,83,52,29.23,28.94,19,4,26,1.28
2014-6-18,76,69,65,70,65,63,99,89,74,29.21,28.98,13,3,16,0.01
2014-6-19,76,68,54,66,53,33,99,63,25,29.32,29.14,8,1,11,0.00
2014-6-20,74,62,48,59,50,38,98,68,31,29.29,29.04,6,1,9,0.00
2014-6-21,75,64,52,56,50,45,97,65,36,29.17,29.01,9,1,11,0.00
2014-6-22,79,66,51,58,53,47,98,67,36,29.21,29.01,6,2,11,0.00
2014-6-23,83,71,57,70,61,51,88,72,50,29.22,29.06,9,2,11,0.00
2014-6-24,85,76,69,71,68,66,99,80,60,29.13,29.03,19,5,21,1.10
2014-6-25,75,70,66,72,69,66,99,97,87,29.10,29.01,9,2,10,0.05
2014-6-26,81,72,62,69,62,50,99,78,36,29.22,29.06,7,1,9,0.00
2014-6-27,84,72,61,70,61,54,99,72,44,29.37,29.16,8,1,11,0.00
2014-6-28,86,75,64,73,66,55,94,73,52,29.44,29.26,7,2,10,0.00
2014-6-29,85,77,70,76,69,63,97,79,64,29.33,29.14,18,5,18,0.06
2014-6-30,86,78,69,74,71,68,99,81,59,29.20,29.01,14,4,16,0.00
2014-7-1,85,78,72,73,69,61,94,75,48,29.01,28.84,29,7,36,0.00
2014-7-2,82,74,68,71,67,58,98,80,47,29.07,28.91,18,5,23,0.12
2014-7-3,74,67,60,69,65,57,99,94,76,29.17,29.04,11,1,12,0.15
2014-7-4,73,64,57,58,53,47,97,70,40,29.36,29.15,14,2,14,0.00
2014-7-5,77,66,52,57,52,47,97,64,36,29.42,29.20,17,4,19,0.00
2014-7-6,79,70,60,60,57,53,94,66,41,29.20,28.96,21,6,24,0.00
2014-7-7,78,72,67,72,67,59,99,86,70,28.96,28.81,23,8,30,0.83
2014-7-8,80,72,66,73,68,62,99,91,74,28.90,28.66,33,6,33,0.47
2014-7-9,72,65,60,63,59,54,98,83,61,29.12,28.83,12,3,15,0.00
2014-7-10,76,64,50,62,54,49,98,74,46,29.37,29.11,6,1,9,0.00
2014-7-11,80,66,52,62,56,51,98,73,45,29.46,29.25,6,1,7,0.00
2014-7-12,81,71,59,66,61,54,98,74,42,29.37,29.13,13,2,16,0.00
2014-7-13,81,74,69,73,68,62,99,83,64,29.13,28.94,18,5,21,0.08
2014-7-14,77,69,60,70,62,53,99,81,53,29.08,28.90,7,1,9,0.00
2014-7-15,77,68,59,70,61,47,99,81,40,28.93,28.82,21,4,24,0.08
2014-7-16,71,63,54,60,57,53,98,83,59,29.05,28.86,14,3,17,0.00
2014-7-17,74,63,54,59,55,47,98,78,44,29.24,29.02,11,2,11,0.00
2014-7-18,78,66,52,60,56,50,98,74,43,29.45,29.21,6,2,7,0.00
2014-7-19,76,66,56,68,62,54,99,89,61,29.39,29.24,9,1,10,0.46
2014-7-20,79,70,64,70,66,63,99,90,68,29.28,29.19,11,2,12,0.01
2014-7-21,83,72,62,73,67,61,99,85,62,29.37,29.19,7,1,8,0.00
2014-7-22,86,74,60,69,64,59,99,75,49,29.36,29.09,12,3,14,0.00
2014-7-23,76,71,61,72,66,59,99,86,75,29.12,29.02,14,3,18,0.01
2014-7-24,74,64,55,60,54,45,98,71,41,29.24,29.07,9,1,11,0.00
2014-7-25,75,64,52,62,56,51,98,77,47,29.24,29.06,14,3,16,0.00
2014-7-26,78,68,58,67,61,54,99,82,48,29.12,28.91,15,3,17,0.00
2014-7-27,81,74,63,70,66,62,99,80,56,28.95,28.74,16,4,19,0.76
2014-7-28,65,62,57,64,60,55,98,96,83,28.95,28.70,16,2,17,0.61
2014-7-29,71,62,54,60,56,50,98,82,49,29.11,28.91,10,2,12,0.00
2014-7-30,70,61,57,63,59,56,98,95,74,29.13,29.02,14,3,16,0.42
2014-7-31,73,64,58,66,59,50,98,86,48,29.21,29.06,16,3,16,0.19
2014-8-1,81,70,59,68,62,54,99,79,50,29.33,29.16,12,3,16,0.11
2014-8-2,82,70,61,69,65,60,99,86,59,29.36,29.20,12,1,15,0.06
2014-8-3,70,66,64,69,65,63,99,98,95,29.25,29.19,6,1,6,0.19
2014-8-4,81,69,61,72,65,60,99,90,54,29.29,29.16,11,3,16,0.03
2014-8-5,75,66,60,69,63,59,99,93,71,29.23,29.09,6,1,6,0.03
2014-8-6,77,67,58,70,59,50,99,79,43,29.21,29.05,9,1,9,0.00
2014-8-7,76,66,56,66,58,53,98,78,50,29.27,29.07,9,2,10,0.01
2014-8-8,77,65,53,63,58,52,98,80,47,29.37,29.17,6,1,8,0.00
2014-8-9,81,66,53,65,57,52,98,77,41,29.39,29.19,6,1,8,0.00
2014-8-10,83,68,53,66,60,52,98,77,49,29.38,29.20,7,1,8,0.00
2014-8-11,83,72,61,69,62,57,98,73,47,29.25,29.02,11,2,16,0.00
2014-8-12,80,70,64,69,66,57,99,88,61,29.03,28.84,16,4,21,0.70
2014-8-13,71,65,54,64,60,52,98,86,68,28.99,28.82,19,4,25,0.02
2014-8-14,64,58,52,56,52,46,97,81,57,29.01,28.91,14,4,19,0.00
2014-8-15,70,61,54,55,52,48,97,75,47,29.09,28.96,15,4,18,0.01
2014-8-16,69,62,54,62,56,50,97,82,61,29.04,28.93,22,7,27,0.05
2014-8-17,74,66,59,63,61,58,98,86,63,29.17,28.96,9,2,11,0.00
2014-8-18,73,62,52,61,56,51,98,83,59,29.17,28.96,8,1,9,0.00
2014-8-19,79,65,52,68,60,51,98,84,64,29.08,28.92,7,1,8,0.00
2014-8-20,79,70,63,69,66,60,99,87,66,29.12,28.95,9,2,11,0.00
2014-8-21,79,71,64,70,67,64,99,88,65,29.17,29.04,11,2,15,0.00
2014-8-22,79,69,64,71,66,63,99,91,74,29.20,29.08,7,1,9,0.00
2014-8-23,75,68,63,69,66,62,99,95,81,29.27,29.13,9,2,11,0.00
2014-8-24,81,68,60,67,63,59,98,85,52,29.38,29.23,9,1,11,0.00
2014-8-25,83,70,58,67,62,57,99,80,47,29.40,29.20,7,2,13,0.00
2014-8-26,84,74,64,71,65,60,98,78,59,29.31,29.15,14,5,19,0.00
2014-8-27,76,70,60,72,63,56,99,81,54,29.24,29.15,9,2,12,0.00
2014-8-28,71,62,52,59,54,48,98,77,49,29.25,29.09,12,2,15,0.00
2014-8-29,78,62,49,61,55,48,98,81,43,29.37,29.18,9,2,9,0.00
2014-8-30,87,72,58,73,65,57,98,81,51,29.26,29.10,15,3,26,0.02
2014-8-31,77,73,69,72,70,68,99,91,82,29.13,29.09,18,6,20,0.01
2014-9-1,84,75,67,74,70,66,99,87,63,29.18,28.98,12,4,18,0.19
2014-9-2,78,71,65,73,69,64,99,95,81,29.08,28.93,21,4,24,0.51
2014-9-3,79,69,60,66,62,57,98,82,49,29.27,29.03,10,2,15,0.01
2014-9-4,83,71,57,69,62,57,99,77,43,29.31,29.16,12,3,16,0.00
2014-9-5,87,76,67,74,68,64,99,77,59,29.26,29.09,22,5,25,0.11
2014-9-6,69,65,54,68,62,49,99,90,67,29.14,28.97,11,4,16,0.68
2014-9-7,72,60,50,58,53,49,97,81,45,29.37,29.12,7,2,10,0.00
2014-9-8,78,63,48,61,54,47,97,76,48,29.44,29.26,6,2,10,0.01
2014-9-9,78,68,58,66,60,56,98,79,55,29.33,29.16,12,2,12,0.00
2014-9-10,78,69,62,69,65,61,98,88,72,29.18,28.79,26,3,28,0.05
2014-9-11,73,63,55,72,60,51,99,89,79,29.19,28.74,24,6,29,0.12
2014-9-12,60,52,44,52,47,43,97,84,57,29.37,29.19,11,1,11,0.01
2014-9-13,57,50,44,55,49,43,97,95,81,29.32,29.07,11,2,15,0.15
2014-9-14,63,50,38,52,45,36,97,86,57,29.45,29.23,5,1,7,0.00
2014-9-15,66,57,46,57,51,44,97,84,54,29.32,29.11,9,2,13,0.19
2014-9-16,65,57,48,57,51,42,97,82,43,29.21,29.07,9,2,14,0.06
2014-9-17,68,55,44,54,49,43,97,82,51,29.16,29.01,11,3,16,0.00
2014-9-18,59,50,39,57,48,38,97,95,77,29.25,29.00,6,2,10,0.00
2014-9-19,64,51,38,50,44,37,97,80,50,29.42,29.13,9,2,14,0.00